Time;durP1;ratioP1;P1;durP2;ratioP2;P2;SDS_P1;SDS_P2;PMS_P1;PMS_P2;Temp;Humidity;BMP_temperature;BMP_pressure;BME280_temperature;BME280_humidity;BME280_pressure;Samples;Min_cycle;Max_cycle;Signal;HPM_P1;HPM_P2
2023/03/24 00:02:02;;;;;;;4.45;2.83;;;;;;;11.07;100.00;99844.81;4956365;28;20082;-92
2023/03/24 00:04:51;;;;;;;5.90;3.05;;;;;;;11.09;100.00;99851.66;4966660;28;20400;-92
2023/03/24 00:07:20;;;;;;;7.10;2.95;;;;;;;11.07;100.00;99842.22;4971376;28;20026;-92
2023/03/24 00:09:48;;;;;;;5.95;2.83;;;;;;;11.05;100.00;99834.50;4957136;28;20037;-92
2023/03/24 00:12:21;;;;;;;5.97;2.90;;;;;;;11.07;100.00;99829.25;4952754;29;20024;-92
2023/03/24 00:14:47;;;;;;;5.40;2.90;;;;;;;11.09;100.00;99827.47;4943083;28;20491;-91
2023/03/24 00:17:18;;;;;;;5.32;3.03;;;;;;;11.02;100.00;99803.53;4952286;28;20081;-92
2023/03/24 00:19:47;;;;;;;6.05;2.78;;;;;;;11.01;100.00;99812.22;4965257;28;20519;-92
2023/03/24 00:22:20;;;;;;;6.68;2.90;;;;;;;11.17;100.00;99825.41;4960846;28;20515;-93
2023/03/24 00:24:48;;;;;;;5.90;3.03;;;;;;;11.20;100.00;99827.00;4947421;29;20036;-92
2023/03/24 00:27:29;;;;;;;6.63;3.10;;;;;;;11.13;100.00;99805.66;4957640;28;20049;-92
2023/03/24 00:30:03;;;;;;;5.32;3.40;;;;;;;11.26;100.00;99821.56;4952146;28;20027;-92
2023/03/24 00:32:37;;;;;;;5.68;3.33;;;;;;;11.14;100.00;99794.38;4952327;29;20034;-92
2023/03/24 00:35:17;;;;;;;7.05;3.50;;;;;;;11.28;100.00;99820.56;4954028;29;20027;-93
2023/03/24 00:37:45;;;;;;;6.25;3.67;;;;;;;11.33;100.00;99813.44;4954150;28;20543;-92
2023/03/24 00:40:34;;;;;;;5.65;2.95;;;;;;;11.32;100.00;99792.78;4951496;28;20122;-91
2023/03/24 00:43:02;;;;;;;5.93;3.33;;;;;;;11.34;100.00;99793.53;4942860;29;20059;-91
2023/03/24 00:45:33;;;;;;;6.20;3.10;;;;;;;11.35;100.00;99792.63;4952487;29;20031;-92
2023/03/24 00:48:03;;;;;;;6.97;3.38;;;;;;;11.43;100.00;99787.94;4952460;29;20020;-91
2023/03/24 00:50:32;;;;;;;4.53;2.95;;;;;;;11.44;100.00;99784.44;4953649;29;20034;-92
2023/03/24 00:53:00;;;;;;;6.43;3.10;;;;;;;11.55;100.00;99791.75;4966329;28;20031;-92
2023/03/24 00:55:36;;;;;;;6.03;2.97;;;;;;;11.48;100.00;99776.44;4938188;28;20158;-91
2023/03/24 00:58:03;;;;;;;5.85;3.00;;;;;;;11.53;100.00;99762.44;4962216;28;20027;-91
2023/03/24 01:00:56;;;;;;;5.43;3.22;;;;;;;11.64;100.00;99773.16;4967829;28;20038;-92
2023/03/24 01:03:26;;;;;;;6.55;2.90;;;;;;;11.62;100.00;99760.25;4951948;29;20298;-92
2023/03/24 01:05:56;;;;;;;5.03;2.78;;;;;;;11.67;100.00;99758.28;4967565;28;20507;-91
2023/03/24 01:08:24;;;;;;;4.82;2.92;;;;;;;11.70;100.00;99750.38;4951762;28;20055;-92
2023/03/24 01:10:52;;;;;;;5.85;3.10;;;;;;;11.67;100.00;99744.50;4953258;28;20495;-91
2023/03/24 01:13:23;;;;;;;5.35;2.92;;;;;;;11.71;100.00;99736.47;4965496;28;20542;-91
2023/03/24 01:15:58;;;;;;;4.57;2.60;;;;;;;11.77;100.00;99762.19;4951511;29;20023;-91
2023/03/24 01:18:24;;;;;;;5.50;2.88;;;;;;;11.74;100.00;99753.69;4952073;29;20043;-92
2023/03/24 01:20:50;;;;;;;5.25;2.90;;;;;;;11.73;100.00;99742.47;4953336;29;20031;-91
2023/03/24 01:23:20;;;;;;;5.38;2.88;;;;;;;11.84;100.00;99760.16;4958294;28;20398;-93
2023/03/24 01:25:49;;;;;;;4.80;2.92;;;;;;;11.75;100.00;99740.63;4954018;28;20026;-91
2023/03/24 01:28:23;;;;;;;5.32;3.05;;;;;;;11.69;100.00;99735.69;4951831;29;20031;-92
2023/03/24 01:30:50;;;;;;;5.03;2.67;;;;;;;11.68;100.00;99736.59;4951520;29;20034;-92
2023/03/24 01:33:19;;;;;;;5.13;3.03;;;;;;;11.77;100.00;99756.16;4953073;29;20058;-92
2023/03/24 01:35:45;;;;;;;5.10;3.20;;;;;;;11.71;100.00;99752.06;4952703;28;20035;-92
2023/03/24 01:38:12;;;;;;;6.00;2.95;;;;;;;11.53;100.00;99723.50;4967836;28;20055;-92
2023/03/24 01:40:41;;;;;;;5.13;3.00;;;;;;;11.56;100.00;99731.13;4954101;28;20058;-92
2023/03/24 01:43:19;;;;;;;4.60;3.30;;;;;;;11.48;100.00;99721.09;4951731;29;20027;-93
2023/03/24 01:45:48;;;;;;;5.78;2.80;;;;;;;11.58;100.00;99729.31;4939221;29;20472;-92
2023/03/24 01:49:08;;;;;;;5.93;3.08;;;;;;;11.40;100.00;99715.41;4948490;29;20503;-93
2023/03/24 01:51:39;;;;;;;4.50;2.95;;;;;;;11.37;100.00;99707.78;4910382;28;20487;-92
2023/03/24 01:54:15;;;;;;;6.93;2.95;;;;;;;11.49;100.00;99726.22;4953262;28;20476;-93
2023/03/24 01:56:49;;;;;;;5.00;3.30;;;;;;;11.38;100.00;99714.66;4950270;29;20493;-92
2023/03/24 01:59:22;;;;;;;7.15;3.47;;;;;;;11.35;100.00;99696.63;4952463;28;20031;-92
2023/03/24 02:01:48;;;;;;;5.53;3.10;;;;;;;11.38;100.00;99702.53;4946474;29;20497;-92
2023/03/24 02:04:17;;;;;;;4.78;3.00;;;;;;;11.35;100.00;99699.22;4949364;29;20031;-92
2023/03/24 02:06:44;;;;;;;5.15;3.45;;;;;;;11.38;100.00;99702.53;4946856;28;20187;-92
2023/03/24 02:09:12;;;;;;;5.57;3.25;;;;;;;11.43;100.00;99694.53;4946664;29;20114;-92
2023/03/24 02:11:39;;;;;;;6.18;3.22;;;;;;;11.40;100.00;99692.91;4950501;28;20764;-92
2023/03/24 02:14:06;;;;;;;6.35;3.30;;;;;;;11.43;100.00;99694.53;4948191;29;20034;-92
2023/03/24 02:16:45;;;;;;;4.47;3.28;;;;;;;11.52;100.00;99694.13;4948776;29;20043;-92
2023/03/24 02:19:47;;;;;;;7.55;3.60;;;;;;;11.43;100.00;99687.59;4945587;29;20030;-92
2023/03/24 02:26:05;;;;;;;6.18;3.40;;;;;;;11.48;100.00;99706.38;4945235;29;20601;-93
2023/03/24 02:29:11;;;;;;;4.55;3.03;;;;;;;11.33;100.00;99682.88;4964116;28;20063;-92
2023/03/24 02:31:52;;;;;;;6.40;3.42;;;;;;;11.40;100.00;99710.22;4962556;28;20098;-92
2023/03/24 02:35:14;;;;;;;;;;;;;;;;;;;;;
2023/03/24 02:38:05;;;;;;;6.65;3.75;;;;;;;11.41;100.00;99717.94;4952982;28;20247;-93
2023/03/24 02:40:45;;;;;;;6.53;3.53;;;;;;;11.26;100.00;99694.47;4934912;29;20488;-93
2023/03/24 02:43:42;;;;;;;9.50;3.60;;;;;;;11.22;100.00;99691.16;4952556;29;20031;-93
2023/03/24 02:46:46;;;;;;;6.82;3.50;;;;;;;11.35;100.00;99704.41;4950001;28;20067;-94
2023/03/24 02:49:41;;;;;;;6.53;4.03;;;;;;;11.25;100.00;99678.06;4947364;28;20035;-93
2023/03/24 02:52:23;;;;;;;;;;;;;;;11.35;100.00;99701.81;4941659;28;20086;-92
2023/03/24 02:55:24;;;;;;;8.43;3.78;;;;;;;11.32;100.00;99727.91;4935554;29;19973;-92
2023/03/24 02:57:59;;;;;;;6.25;3.55;;;;;;;11.30;100.00;99721.94;4934892;29;20048;-94
2023/03/24 03:00:31;;;;;;;4.95;3.10;;;;;;;11.31;100.00;99729.66;4951910;28;20472;-92
2023/03/24 03:03:43;;;;;;;;;;;;;;;;;;;;;
2023/03/24 03:06:39;;;;;;;6.28;3.40;;;;;;;11.23;100.00;99723.13;4953500;29;20395;-93
2023/03/24 03:09:13;;;;;;;5.00;3.40;;;;;;;11.20;100.00;99728.44;4920704;29;20285;-92
2023/03/24 03:11:42;;;;;;;5.53;3.40;;;;;;;11.23;100.00;99736.94;4943956;29;20279;-92
2023/03/24 03:14:27;;;;;;;5.65;3.50;;;;;;;11.31;100.00;99762.53;4930806;29;20058;-93
2023/03/24 03:17:06;;;;;;;6.78;4.25;;;;;;;11.35;100.00;99769.28;4956570;28;20027;-92
2023/03/24 03:19:49;;;;;;;5.57;3.90;;;;;;;11.38;100.00;99782.13;4951384;29;20033;-94
2023/03/24 03:22:20;;;;;;;4.50;3.20;;;;;;;11.29;100.00;99779.91;4941648;29;20027;-92
2023/03/24 03:24:51;;;;;;;5.13;2.75;;;;;;;11.32;100.00;99800.56;4947550;29;20497;-92
2023/03/24 03:27:26;;;;;;;4.18;1.88;;;;;;;11.10;100.00;99798.03;4913394;28;20139;-92
2023/03/24 03:30:03;;;;;;;3.13;1.42;;;;;;;10.96;100.00;99796.03;4929276;29;20034;-92
2023/03/24 03:32:34;;;;;;;3.72;1.33;;;;;;;10.81;100.00;99806.19;4956563;28;20042;-93
2023/03/24 03:35:15;;;;;;;2.78;1.20;;;;;;;10.65;100.00;99829.28;4943550;29;20031;-93
2023/03/24 03:37:56;;;;;;;3.78;1.00;;;;;;;10.35;100.00;99799.41;4930762;29;20027;-92
2023/03/24 03:40:59;;;;;;;3.65;1.20;;;;;;;10.19;100.00;99822.47;4931470;29;20102;-92
2023/03/24 03:43:26;;;;;;;6.45;1.30;;;;;;;10.11;100.00;99851.22;4981062;28;20098;-93
2023/03/24 03:45:54;;;;;;;4.45;1.30;;;;;;;10.05;100.00;99874.75;4950820;29;20030;-93
2023/03/24 03:48:21;;;;;;;2.58;1.10;;;;;;;10.01;100.00;99868.00;4937141;29;20074;-92
2023/03/24 03:50:47;;;;;;;3.95;1.20;;;;;;;9.98;100.00;99857.75;4950626;29;20407;-92
2023/03/24 03:53:16;;;;;;;4.28;1.17;;;;;;;9.91;100.00;99866.66;4951214;29;20551;-92
2023/03/24 03:55:51;;;;;;;5.85;1.40;;;;;;;9.93;100.00;99889.91;4933740;29;20054;-92
2023/03/24 03:58:16;;;;;;;4.03;1.30;;;;;;;9.81;100.00;99880.84;4944112;29;20045;-92
2023/03/24 04:00:43;;;;;;;4.93;1.40;;;;;;;9.62;100.00;99866.88;4934061;29;20039;-93
2023/03/24 04:03:33;;;;;;;3.08;1.45;;;;;;;9.70;100.00;99888.13;4944681;29;20126;-91
2023/03/24 04:06:16;;;;;;;5.15;1.70;;;;;;;9.52;100.00;99880.13;4963868;28;20047;-92
2023/03/24 04:08:49;;;;;;;7.90;2.20;;;;;;;9.56;100.00;99901.53;4967587;28;20498;-92
2023/03/24 04:11:28;;;;;;;4.15;2.05;;;;;;;9.52;100.00;99906.00;4951807;29;20118;-92
2023/03/24 04:14:09;;;;;;;6.88;2.67;;;;;;;9.48;100.00;99919.09;4933988;29;20034;-92
2023/03/24 04:16:50;;;;;;;7.68;3.28;;;;;;;9.46;100.00;99920.88;4953783;29;20042;-92
2023/03/24 04:19:44;;;;;;;12.48;3.70;;;;;;;9.48;100.00;99927.66;4950343;29;20058;-93
2023/03/24 04:22:39;;;;;;;8.85;4.53;;;;;;;9.54;100.00;99921.47;4944852;29;20098;-93
2023/03/24 04:25:19;;;;;;;;;;;;;;;9.58;100.00;99953.22;4963391;28;20110;-94
2023/03/24 04:27:59;;;;;;;8.60;4.40;;;;;;;9.61;100.00;99956.56;4959076;28;19918;-94
2023/03/24 04:30:41;;;;;;;10.68;4.20;;;;;;;9.61;100.00;99973.84;4967428;28;20049;-92
2023/03/24 04:33:21;;;;;;;8.43;3.95;;;;;;;9.51;100.00;99947.41;4931702;29;20039;-91
2023/03/24 04:35:56;;;;;;;8.40;3.65;;;;;;;9.56;100.00;99961.03;4950685;29;20028;-92
2023/03/24 04:38:26;;;;;;;12.15;3.55;;;;;;;9.41;100.00;99940.88;4954519;28;20526;-92
2023/03/24 04:40:57;;;;;;;9.27;3.72;;;;;;;9.47;100.00;99969.13;4970267;28;20033;-92
2023/03/24 04:43:27;;;;;;;11.85;3.55;;;;;;;9.29;100.00;99952.47;4969413;28;20038;-93
2023/03/24 04:45:58;;;;;;;9.32;3.53;;;;;;;9.43;100.00;99970.94;4969020;28;20475;-92
2023/03/24 04:48:25;;;;;;;11.93;3.42;;;;;;;9.38;100.00;99977.19;4967264;28;20054;-92
2023/03/24 04:51:14;;;;;;;12.00;3.85;;;;;;;9.26;100.00;99956.91;4948751;28;20031;-93
2023/03/24 04:53:40;;;;;;;9.43;3.17;;;;;;;9.24;100.00;99975.03;4959249;28;20438;-93
2023/03/24 04:56:29;;;;;;;10.07;3.35;;;;;;;9.25;100.00;99996.56;4969067;28;20499;-94
2023/03/24 04:58:57;;;;;;;7.72;2.90;;;;;;;9.00;100.00;99968.06;4956180;28;20113;-93
2023/03/24 05:01:24;;;;;;;8.38;2.90;;;;;;;8.91;100.00;99976.94;4972285;28;20451;-94
2023/03/24 05:03:52;;;;;;;7.72;2.47;;;;;;;8.85;100.00;99979.72;4972482;28;20030;-93
2023/03/24 05:06:17;;;;;;;7.18;2.50;;;;;;;8.88;100.00;100000.28;4936035;28;20043;-93
2023/03/24 05:08:43;;;;;;;7.57;2.40;;;;;;;8.73;100.00;99996.41;4966538;28;20321;-93
2023/03/24 05:11:17;;;;;;;9.65;2.47;;;;;;;8.71;100.00;99995.66;4953005;28;20054;-93
2023/03/24 05:13:46;;;;;;;5.93;2.00;;;;;;;8.55;100.00;99983.22;4961974;28;20038;-93
2023/03/24 05:16:15;;;;;;;8.68;2.00;;;;;;;8.54;100.00;99994.44;4972407;28;20070;-92
2023/03/24 05:18:40;;;;;;;7.55;2.28;;;;;;;8.47;100.00;99995.50;4966021;28;20027;-91
2023/03/24 05:21:06;;;;;;;7.93;2.33;;;;;;;8.49;100.00;100010.06;4954127;28;20411;-93
2023/03/24 05:23:32;;;;;;;9.15;2.55;;;;;;;8.39;100.00;100006.06;4934708;29;20058;-93
2023/03/24 05:26:05;;;;;;;11.05;2.47;;;;;;;8.33;100.00;100006.22;4953566;28;20053;-93
2023/03/24 05:28:36;;;;;;;10.35;2.33;;;;;;;8.39;100.00;100020.72;4941931;28;20046;-90
2023/03/24 05:31:01;;;;;;;9.63;2.40;;;;;;;8.38;100.00;100031.94;4972005;28;20062;-92
2023/03/24 05:33:29;;;;;;;11.95;2.90;;;;;;;8.45;100.00;100031.72;4947490;28;20079;-92
2023/03/24 05:36:07;;;;;;;;;;;;;;;;;;;;;
2023/03/24 06:58:53;;;;;;;10.52;1.65;;;;;;;12.35;88.10;100104.25;5393363;23;20091;-88
2023/03/24 07:01:19;;;;;;;13.55;1.88;;;;;;;12.44;86.61;100102.09;4958652;28;20035;-88
2023/03/24 07:03:44;;;;;;;11.13;1.85;;;;;;;12.59;85.04;100103.19;4961706;28;21372;-88
2023/03/24 07:06:10;;;;;;;6.45;1.70;;;;;;;12.66;83.84;100115.84;4972348;28;20038;-88
2023/03/24 07:08:36;;;;;;;9.27;2.17;;;;;;;12.74;85.00;100114.66;4974990;28;20085;-88
2023/03/24 07:11:02;;;;;;;9.73;1.77;;;;;;;13.23;83.47;100108.13;4957634;28;20027;-89
2023/03/24 07:13:28;;;;;;;13.13;2.20;;;;;;;13.50;81.69;100103.38;4959378;28;20793;-88
2023/03/24 07:15:53;;;;;;;13.73;2.58;;;;;;;13.40;79.94;100103.81;4959386;28;20058;-89
2023/03/24 07:18:19;;;;;;;14.48;1.85;;;;;;;13.27;80.44;100117.47;4960132;28;20387;-88
2023/03/24 07:20:45;;;;;;;10.25;1.75;;;;;;;13.15;80.06;100118.88;4959047;28;20125;-88
2023/03/24 07:23:12;;;;;;;8.23;1.80;;;;;;;12.83;82.21;100129.88;4975571;28;20153;-86
2023/03/24 07:25:41;;;;;;;9.32;1.65;;;;;;;12.52;83.71;100131.19;4960494;28;20045;-86
2023/03/24 07:28:07;;;;;;;12.80;2.10;;;;;;;12.48;84.20;100129.66;4960343;28;20035;-88
2023/03/24 07:30:34;;;;;;;11.63;2.28;;;;;;;12.62;84.03;100134.25;4956648;28;20027;-88
2023/03/24 07:33:02;;;;;;;9.70;1.80;;;;;;;12.83;84.93;100125.50;4959467;28;20038;-87
2023/03/24 07:35:28;;;;;;;10.52;1.80;;;;;;;13.23;80.30;100132.41;4959522;28;20026;-88
2023/03/24 07:37:57;;;;;;;11.05;2.10;;;;;;;13.47;81.69;100137.38;4961083;28;20113;-88
2023/03/24 07:40:23;;;;;;;9.43;2.15;;;;;;;13.31;79.50;100135.47;4960788;28;20069;-88
2023/03/24 07:42:49;;;;;;;9.25;1.83;;;;;;;12.95;80.08;100137.13;4961057;28;20106;-88
2023/03/24 07:45:14;;;;;;;12.32;2.10;;;;;;;12.76;81.79;100146.66;4960217;28;20206;-88
2023/03/24 07:47:43;;;;;;;11.15;1.80;;;;;;;12.96;82.51;100141.41;4959386;28;20023;-88
2023/03/24 07:50:10;;;;;;;10.07;2.25;;;;;;;13.22;79.51;100137.66;4958194;28;20031;-88
2023/03/24 07:52:40;;;;;;;9.90;1.90;;;;;;;13.23;81.39;100147.16;4960796;28;20029;-88
2023/03/24 07:57:44;;;;;;;8.35;2.10;;;;;;;13.22;79.56;100140.28;5419898;23;20449;-91
2023/03/24 08:00:19;;;;;;;11.02;1.95;;;;;;;13.51;80.03;100163.19;4975131;28;20030;-91
2023/03/24 08:02:47;;;;;;;10.05;2.30;;;;;;;13.52;80.19;100145.78;4960401;28;20118;-91
2023/03/24 08:05:13;;;;;;;11.07;2.10;;;;;;;13.48;78.34;100154.69;4961789;28;20027;-92
2023/03/24 08:07:41;;;;;;;9.15;2.45;;;;;;;13.60;78.84;100164.50;4960717;28;20034;-91
2023/03/24 08:10:12;;;;;;;10.40;2.10;;;;;;;13.72;77.37;100151.75;4958907;28;20189;-91
2023/03/24 08:12:38;;;;;;;12.85;2.35;;;;;;;13.85;76.89;100171.09;4946638;28;20050;-91
2023/03/24 08:15:05;;;;;;;13.10;2.30;;;;;;;14.12;77.61;100174.16;4959514;28;20031;-91
2023/03/24 08:17:31;;;;;;;10.88;2.33;;;;;;;14.14;76.15;100163.63;4960471;28;20026;-91
2023/03/24 08:19:56;;;;;;;6.85;2.15;;;;;;;14.29;74.14;100186.34;4959828;28;20035;-93
2023/03/24 08:22:21;;;;;;;13.23;2.47;;;;;;;14.12;74.66;100168.94;4974672;28;20030;-91
2023/03/24 08:24:47;;;;;;;12.70;2.17;;;;;;;13.82;76.12;100191.25;4959758;28;20515;-91
2023/03/24 08:27:12;;;;;;;10.98;2.10;;;;;;;13.89;76.89;100184.81;4973657;28;20085;-90
2023/03/24 08:29:38;;;;;;;10.70;2.38;;;;;;;13.92;76.18;100199.47;4957202;28;20038;-91
2023/03/24 08:32:03;;;;;;;10.98;2.20;;;;;;;13.61;77.41;100177.47;4944274;28;20027;-90
2023/03/24 08:34:29;;;;;;;11.07;2.20;;;;;;;13.63;77.49;100177.41;4957238;28;20118;-91
2023/03/24 08:36:54;;;;;;;12.80;2.70;;;;;;;14.42;78.48;100194.44;4943570;28;20031;-90
2023/03/24 08:39:20;;;;;;;8.35;2.60;;;;;;;15.31;76.40;100194.13;4959336;28;20037;-91
2023/03/24 08:41:46;;;;;;;10.60;2.47;;;;;;;15.93;71.19;100182.88;4959665;28;20406;-91
2023/03/24 08:44:12;;;;;;;12.02;2.45;;;;;;;16.11;68.13;100194.06;4973041;28;20126;-91
2023/03/24 08:46:38;;;;;;;11.60;2.75;;;;;;;15.87;66.92;100185.00;4948279;28;20039;-90
2023/03/24 08:49:03;;;;;;;12.77;2.50;;;;;;;15.50;65.62;100202.66;4958025;28;20027;-90
2023/03/24 08:51:30;;;;;;;7.75;2.20;;;;;;;14.98;68.56;100194.16;4958077;28;20045;-90
2023/03/24 08:53:55;;;;;;;9.85;2.40;;;;;;;14.56;71.09;100191.97;4958571;28;20109;-90
2023/03/24 08:56:21;;;;;;;14.35;2.72;;;;;;;14.36;71.28;100205.13;4948712;28;20125;-90
2023/03/24 08:58:52;;;;;;;11.48;2.58;;;;;;;14.22;70.03;100205.81;4975405;28;20121;-87
2023/03/24 09:01:19;;;;;;;8.77;2.10;;;;;;;13.94;71.64;100210.66;4975243;28;20646;-87
2023/03/24 09:03:45;;;;;;;10.98;2.38;;;;;;;13.74;72.32;100198.56;4991071;28;20026;-87
2023/03/24 09:06:11;;;;;;;12.18;2.45;;;;;;;13.50;73.95;100186.72;4976399;28;20018;-87
2023/03/24 09:08:37;;;;;;;10.95;2.55;;;;;;;13.31;74.56;100220.53;4959277;28;20044;-87
2023/03/24 09:11:03;;;;;;;8.27;2.15;;;;;;;12.89;74.37;100197.22;4977817;28;20023;-87
2023/03/24 09:13:29;;;;;;;10.32;2.20;;;;;;;12.82;76.93;100221.81;4992299;28;20405;-88
2023/03/24 09:15:59;;;;;;;9.63;2.22;;;;;;;12.82;76.52;100201.84;4975879;28;20490;-87
2023/03/24 09:18:25;;;;;;;11.52;2.70;;;;;;;13.01;78.43;100209.69;4964529;28;20495;-87
2023/03/24 09:20:51;;;;;;;12.80;2.53;;;;;;;13.22;76.23;100210.53;4978074;28;20026;-88
2023/03/24 09:23:17;;;;;;;10.82;3.00;;;;;;;13.24;74.83;100232.97;4991921;28;20410;-87
2023/03/24 09:25:42;;;;;;;9.75;2.45;;;;;;;13.35;76.25;100222.09;4977556;28;20027;-88
2023/03/24 09:28:09;;;;;;;8.57;2.60;;;;;;;13.36;76.67;100218.56;4963295;28;20107;-88
2023/03/24 09:30:35;;;;;;;8.50;2.65;;;;;;;13.70;75.28;100221.34;4957662;28;20121;-88
2023/03/24 09:33:00;;;;;;;11.63;2.90;;;;;;;13.64;74.42;100211.19;4976095;28;20306;-87
2023/03/24 09:35:26;;;;;;;8.27;2.53;;;;;;;13.76;74.60;100218.44;4991614;28;20022;-87
2023/03/24 09:37:53;;;;;;;10.70;2.55;;;;;;;13.84;75.65;100225.91;4977449;28;20066;-87
2023/03/24 09:40:23;;;;;;;9.35;2.83;;;;;;;13.87;73.28;100214.47;4978097;28;20121;-87
2023/03/24 09:42:59;;;;;;;8.15;2.83;;;;;;;13.78;72.52;100236.59;4977814;28;20018;-87
2023/03/24 09:45:27;;;;;;;9.88;2.88;;;;;;;13.48;75.12;100240.59;4978019;28;20034;-88
2023/03/24 09:47:57;;;;;;;10.77;2.90;;;;;;;12.99;79.73;100247.94;4959807;28;20037;-88
2023/03/24 09:50:33;;;;;;;9.38;3.00;;;;;;;12.53;85.20;100255.06;4976538;28;20118;-87
2023/03/24 09:53:07;;;;;;;10.27;3.00;;;;;;;12.45;83.39;100253.69;4960608;28;20031;-87
2023/03/24 09:55:36;;;;;;;9.30;2.83;;;;;;;12.42;84.36;100249.47;4960644;28;20076;-87
2023/03/24 09:58:05;;;;;;;10.57;3.50;;;;;;;12.50;85.67;100242.19;4973952;28;20407;-88
2023/03/24 10:00:31;;;;;;;9.00;2.95;;;;;;;12.71;86.03;100240.47;4975728;28;20026;-87
2023/03/24 10:03:12;;;;;;;9.57;3.30;;;;;;;12.97;84.52;100263.59;4976357;28;20038;-87
2023/03/24 10:05:47;;;;;;;12.18;3.22;;;;;;;13.39;84.19;100268.72;4976720;28;20232;-88
2023/03/24 10:08:24;;;;;;;10.88;3.15;;;;;;;13.58;81.84;100266.13;4990233;28;20030;-87
2023/03/24 10:11:41;;;;;;;12.27;3.38;;;;;;;13.74;81.35;100272.34;4975240;28;20019;-88
2023/03/24 10:14:21;;;;;;;12.40;3.70;;;;;;;13.92;77.88;100262.03;4946939;28;20092;-88
2023/03/24 10:17:12;;;;;;;10.80;3.38;;;;;;;14.17;77.03;100271.22;4972280;28;20031;-88
2023/03/24 10:19:47;;;;;;;11.15;3.30;;;;;;;14.28;74.06;100262.00;4976844;28;20505;-89
2023/03/24 10:22:21;;;;;;;9.75;3.22;;;;;;;14.16;72.53;100273.88;4974030;28;20073;-89
2023/03/24 10:24:55;;;;;;;7.10;2.80;;;;;;;14.00;73.86;100273.75;4956936;28;20218;-89
2023/03/24 10:27:40;;;;;;;8.23;2.60;;;;;;;13.90;75.32;100259.47;4974219;28;20022;-89
2023/03/24 10:30:19;;;;;;;8.32;2.92;;;;;;;14.05;74.18;100261.38;4976299;28;21082;-88
2023/03/24 10:32:45;;;;;;;13.50;3.13;;;;;;;14.32;74.01;100266.19;4958162;28;20445;-88
2023/03/24 10:35:29;;;;;;;9.60;2.65;;;;;;;14.57;72.41;100279.75;4975222;28;20540;-88
2023/03/24 10:37:58;;;;;;;7.53;2.38;;;;;;;14.50;72.44;100260.94;4972745;28;20505;-88
2023/03/24 10:40:30;;;;;;;10.80;2.53;;;;;;;14.23;71.31;100255.28;4974860;28;20050;-88
2023/03/24 10:42:56;;;;;;;11.80;2.88;;;;;;;14.00;71.40;100265.94;4991811;28;20038;-88
2023/03/24 10:45:28;;;;;;;10.52;2.35;;;;;;;13.73;72.23;100262.00;4976432;28;20085;-88
2023/03/24 10:47:57;;;;;;;8.95;2.20;;;;;;;13.80;75.50;100266.84;4976932;28;20030;-88
2023/03/24 10:50:26;;;;;;;8.35;2.22;;;;;;;14.16;74.01;100253.88;4976235;28;20039;-88
2023/03/24 10:52:52;;;;;;;7.13;2.40;;;;;;;14.78;72.00;100260.41;4958774;28;20037;-88
2023/03/24 10:55:19;;;;;;;11.00;2.30;;;;;;;15.27;68.33;100250.91;4976079;28;20037;-89
2023/03/24 10:57:49;;;;;;;9.98;2.65;;;;;;;15.57;67.68;100251.06;4975682;28;20046;-87
2023/03/24 11:00:25;;;;;;;7.63;2.22;;;;;;;15.63;66.70;100255.97;4976206;28;20035;-88
2023/03/24 11:03:02;;;;;;;7.43;2.13;;;;;;;15.47;65.42;100262.06;4976503;28;20031;-88
2023/03/24 11:05:32;;;;;;;7.63;2.05;;;;;;;15.13;64.66;100244.72;4975594;28;20025;-88
2023/03/24 11:08:16;;;;;;;7.25;1.92;;;;;;;15.07;68.31;100252.88;4976827;28;20077;-88
2023/03/24 11:10:42;;;;;;;8.73;2.00;;;;;;;15.12;65.40;100243.88;4963291;28;20037;-91
2023/03/24 11:13:34;;;;;;;9.48;2.30;;;;;;;15.30;63.75;100240.28;4966117;28;20482;-90
2023/03/24 11:16:13;;;;;;;8.52;2.45;;;;;;;15.68;66.03;100251.34;4977505;28;20120;-91
2023/03/24 11:19:03;;;;;;;11.18;2.20;;;;;;;15.90;66.59;100244.97;4978521;28;20117;-90
2023/03/24 11:21:30;;;;;;;7.25;2.20;;;;;;;15.90;64.58;100240.53;4979195;28;20030;-90
2023/03/24 11:24:10;;;;;;;9.57;2.70;;;;;;;15.97;66.43;100254.97;4979419;28;20045;-90
2023/03/24 11:26:42;;;;;;;7.13;2.40;;;;;;;15.92;64.48;100243.09;4977085;28;20027;-91
2023/03/24 11:29:18;;;;;;;6.95;2.33;;;;;;;16.07;63.43;100253.53;4978639;28;20041;-91
2023/03/24 11:31:55;;;;;;;10.65;2.15;;;;;;;16.00;62.94;100246.13;4979511;28;20034;-91
2023/03/24 11:34:33;;;;;;;8.48;2.42;;;;;;;15.60;64.08;100245.69;4980529;28;20105;-91
2023/03/24 11:37:05;;;;;;;10.48;2.10;;;;;;;15.41;64.26;100265.84;4979531;28;20034;-91
2023/03/24 11:39:33;;;;;;;10.32;2.38;;;;;;;15.19;65.35;100250.47;4980087;28;20045;-91
2023/03/24 11:42:14;;;;;;;8.75;2.30;;;;;;;15.35;64.95;100251.34;4981018;28;20426;-91
2023/03/24 11:44:47;;;;;;;9.73;2.55;;;;;;;15.54;63.12;100256.47;4979027;28;20223;-90
2023/03/24 11:47:23;;;;;;;8.55;2.22;;;;;;;15.65;64.52;100245.44;4980463;28;21109;-90
2023/03/24 11:50:10;;;;;;;9.18;2.30;;;;;;;15.75;66.18;100255.31;4994389;28;20030;-90
2023/03/24 11:53:06;;;;;;;11.25;2.55;;;;;;;15.46;67.21;100253.38;4968454;28;20381;-90
2023/03/24 11:55:56;;;;;;;9.15;2.03;;;;;;;14.97;68.48;100258.56;4980138;28;20541;-90
2023/03/24 11:58:33;;;;;;;8.07;2.38;;;;;;;14.76;70.24;100269.22;4980455;28;20042;-91
2023/03/24 12:01:06;;;;;;;8.13;2.47;;;;;;;14.43;71.30;100271.75;4968654;28;20030;-90
2023/03/24 12:03:40;;;;;;;8.48;2.28;;;;;;;14.05;71.98;100261.38;4964228;28;20034;-90
2023/03/24 12:06:45;;;;;;;6.97;2.15;;;;;;;13.92;73.82;100290.69;4980612;28;20098;-91
2023/03/24 12:09:31;;;;;;;;;;;;;;;13.72;74.79;100281.16;4980654;28;20039;-90
2023/03/24 12:12:31;;;;;;;6.25;2.28;;;;;;;13.26;77.20;100288.41;4979583;28;19921;-91
2023/03/24 12:15:14;;;;;;;8.48;2.25;;;;;;;13.21;76.58;100312.94;4977738;28;20047;-91
2023/03/24 12:17:44;;;;;;;5.28;1.83;;;;;;;13.08;78.38;100302.19;4961922;28;20018;-92
2023/03/24 12:20:28;;;;;;;3.70;1.60;;;;;;;12.99;77.25;100310.38;4966790;28;20529;-91
2023/03/24 12:23:05;;;;;;;5.50;1.90;;;;;;;12.81;77.96;100298.16;4962911;28;20498;-91
2023/03/24 12:25:36;;;;;;;8.70;1.60;;;;;;;12.72;78.25;100298.50;4979088;28;20145;-91
2023/03/24 12:28:10;;;;;;;6.18;1.75;;;;;;;12.61;80.33;100312.81;4979306;28;20033;-92
2023/03/24 12:31:00;;;;;;;;;;;;;;;12.69;79.33;100314.25;4978586;28;20030;-91
2023/03/24 12:33:44;;;;;;;5.20;1.40;;;;;;;12.72;80.38;100303.72;4978402;28;19968;-91
2023/03/24 12:36:30;;;;;;;4.28;1.35;;;;;;;12.84;80.29;100298.00;4979575;28;20030;-91
2023/03/24 12:39:16;;;;;;;5.50;1.30;;;;;;;12.76;79.96;100294.91;4979629;28;20113;-91
2023/03/24 12:42:14;;;;;;;3.67;1.00;;;;;;;12.62;80.55;100303.25;4960320;28;20042;-92
2023/03/24 12:45:07;;;;;;;1.65;0.90;;;;;;;12.36;80.88;100282.66;4978571;28;20388;-91
2023/03/24 12:47:59;;;;;;;3.15;0.90;;;;;;;12.35;82.74;100299.16;4978033;28;20498;-91
2023/03/24 12:50:51;;;;;;;4.30;1.33;;;;;;;12.39;82.29;100278.19;4978720;28;20467;-91
2023/03/24 12:53:40;;;;;;;0.98;0.88;;;;;;;12.51;83.72;100288.09;4976730;28;20057;-91
2023/03/24 12:56:15;;;;;;;2.13;0.98;;;;;;;12.45;80.95;100275.34;4979306;28;20061;-91
2023/03/24 12:58:42;;;;;;;1.67;0.77;;;;;;;12.56;82.31;100282.69;4976520;28;20104;-92
2023/03/24 13:01:35;;;;;;;3.65;1.05;;;;;;;12.57;80.91;100272.22;4978271;28;20406;-91
2023/03/24 13:04:16;;;;;;;1.50;0.82;;;;;;;12.58;80.19;100278.28;4976991;28;20588;-91
2023/03/24 13:06:47;;;;;;;6.28;1.15;;;;;;;12.61;81.77;100270.38;4977719;28;20156;-91
2023/03/24 13:09:44;;;;;;;3.60;0.93;;;;;;;12.64;82.33;100260.66;4978628;28;20037;-91
2023/03/24 13:12:21;;;;;;;3.35;1.10;;;;;;;12.72;82.73;100251.72;4977552;28;20034;-91
2023/03/24 13:15:08;;;;;;;4.88;1.13;;;;;;;12.80;80.32;100249.63;4978897;28;20042;-91
2023/03/24 13:17:42;;;;;;;3.65;1.10;;;;;;;12.75;80.40;100255.03;4991787;28;20034;-91
2023/03/24 13:20:12;;;;;;;2.85;1.30;;;;;;;12.71;81.57;100250.00;4978496;28;20076;-88
2023/03/24 13:22:39;;;;;;;3.63;1.20;;;;;;;12.69;79.91;100257.06;4960500;28;20026;-88
2023/03/24 13:25:18;;;;;;;3.25;1.20;;;;;;;12.75;79.66;100246.38;4977685;28;20026;-88
2023/03/24 13:27:48;;;;;;;4.40;1.33;;;;;;;12.95;80.57;100254.19;4975428;28;20597;-88
2023/03/24 13:30:29;;;;;;;4.72;1.58;;;;;;;13.21;82.50;100250.50;4958592;28;20074;-88